sensor_id;sensor_type;location;lat;lon;timestamp;P1;durP1;ratioP1;P2;durP2;ratioP2
8825;SDS011;4449;50.872;4.714;2023-04-03T00:01:35;6.75;;;6.05;;
8825;SDS011;4449;50.872;4.714;2023-04-03T00:04:03;6.05;;;5.03;;
8825;SDS011;4449;50.872;4.714;2023-04-03T00:06:31;5.65;;;5.10;;
8825;SDS011;4449;50.872;4.714;2023-04-03T00:09:02;5.32;;;4.80;;
8825;SDS011;4449;50.872;4.714;2023-04-03T00:11:29;5.88;;;5.35;;
8825;SDS011;4449;50.872;4.714;2023-04-03T00:13:57;5.88;;;5.30;;
8825;SDS011;4449;50.872;4.714;2023-04-03T00:16:25;6.78;;;5.35;;
8825;SDS011;4449;50.872;4.714;2023-04-03T00:18:52;5.22;;;4.72;;
8825;SDS011;4449;50.872;4.714;2023-04-03T00:21:20;6.20;;;5.33;;
8825;SDS011;4449;50.872;4.714;2023-04-03T00:23:48;6.05;;;5.18;;
8825;SDS011;4449;50.872;4.714;2023-04-03T00:26:18;6.07;;;5.28;;
8825;SDS011;4449;50.872;4.714;2023-04-03T00:28:46;5.60;;;5.10;;
8825;SDS011;4449;50.872;4.714;2023-04-03T00:31:14;5.95;;;5.35;;
8825;SDS011;4449;50.872;4.714;2023-04-03T00:33:42;5.32;;;4.80;;
8825;SDS011;4449;50.872;4.714;2023-04-03T00:36:10;6.15;;;4.80;;
8825;SDS011;4449;50.872;4.714;2023-04-03T00:38:38;6.22;;;5.15;;
8825;SDS011;4449;50.872;4.714;2023-04-03T00:41:06;5.63;;;5.05;;
8825;SDS011;4449;50.872;4.714;2023-04-03T00:43:35;6.95;;;4.85;;
8825;SDS011;4449;50.872;4.714;2023-04-03T00:46:03;4.97;;;4.47;;
8825;SDS011;4449;50.872;4.714;2023-04-03T00:48:32;5.50;;;4.82;;
8825;SDS011;4449;50.872;4.714;2023-04-03T00:51:00;6.30;;;4.88;;
8825;SDS011;4449;50.872;4.714;2023-04-03T00:53:29;5.50;;;4.85;;
8825;SDS011;4449;50.872;4.714;2023-04-03T00:55:58;7.32;;;5.05;;
8825;SDS011;4449;50.872;4.714;2023-04-03T00:58:28;5.83;;;5.27;;
8825;SDS011;4449;50.872;4.714;2023-04-03T01:01:00;7.70;;;5.18;;
8825;SDS011;4449;50.872;4.714;2023-04-03T01:03:31;5.40;;;4.80;;
8825;SDS011;4449;50.872;4.714;2023-04-03T01:05:58;8.50;;;4.75;;
8825;SDS011;4449;50.872;4.714;2023-04-03T01:08:26;6.28;;;4.40;;
8825;SDS011;4449;50.872;4.714;2023-04-03T01:10:57;4.85;;;4.45;;
8825;SDS011;4449;50.872;4.714;2023-04-03T01:13:25;5.47;;;4.72;;
8825;SDS011;4449;50.872;4.714;2023-04-03T01:15:53;5.00;;;4.60;;
8825;SDS011;4449;50.872;4.714;2023-04-03T01:18:23;5.22;;;4.72;;
8825;SDS011;4449;50.872;4.714;2023-04-03T01:23:40;5.68;;;5.18;;
8825;SDS011;4449;50.872;4.714;2023-04-03T01:26:09;6.35;;;4.70;;
8825;SDS011;4449;50.872;4.714;2023-04-03T01:28:37;5.20;;;4.70;;
8825;SDS011;4449;50.872;4.714;2023-04-03T01:31:08;4.90;;;4.50;;
8825;SDS011;4449;50.872;4.714;2023-04-03T01:33:39;5.50;;;4.53;;
8825;SDS011;4449;50.872;4.714;2023-04-03T01:36:07;4.82;;;4.43;;
8825;SDS011;4449;50.872;4.714;2023-04-03T01:38:35;5.03;;;4.40;;
8825;SDS011;4449;50.872;4.714;2023-04-03T01:41:03;4.75;;;4.13;;
8825;SDS011;4449;50.872;4.714;2023-04-03T01:43:30;6.22;;;4.30;;
8825;SDS011;4449;50.872;4.714;2023-04-03T01:45:58;7.32;;;5.00;;
8825;SDS011;4449;50.872;4.714;2023-04-03T01:48:26;5.63;;;4.70;;
8825;SDS011;4449;50.872;4.714;2023-04-03T01:50:55;6.27;;;4.57;;
8825;SDS011;4449;50.872;4.714;2023-04-03T01:53:23;4.83;;;4.43;;
8825;SDS011;4449;50.872;4.714;2023-04-03T01:55:51;5.13;;;4.57;;
8825;SDS011;4449;50.872;4.714;2023-04-03T01:58:18;5.32;;;4.70;;
8825;SDS011;4449;50.872;4.714;2023-04-03T02:00:46;4.88;;;4.43;;
8825;SDS011;4449;50.872;4.714;2023-04-03T02:03:14;4.88;;;4.35;;
8825;SDS011;4449;50.872;4.714;2023-04-03T02:05:42;5.07;;;4.30;;
8825;SDS011;4449;50.872;4.714;2023-04-03T02:08:11;4.65;;;4.28;;
8825;SDS011;4449;50.872;4.714;2023-04-03T02:10:39;6.55;;;4.57;;
8825;SDS011;4449;50.872;4.714;2023-04-03T02:13:06;6.20;;;4.80;;
8825;SDS011;4449;50.872;4.714;2023-04-03T02:15:37;6.13;;;4.63;;
8825;SDS011;4449;50.872;4.714;2023-04-03T02:18:05;5.10;;;4.60;;
8825;SDS011;4449;50.872;4.714;2023-04-03T02:20:33;5.67;;;4.93;;
8825;SDS011;4449;50.872;4.714;2023-04-03T02:23:01;5.82;;;5.25;;
8825;SDS011;4449;50.872;4.714;2023-04-03T02:25:31;5.03;;;4.50;;
8825;SDS011;4449;50.872;4.714;2023-04-03T02:27:59;5.95;;;4.70;;
8825;SDS011;4449;50.872;4.714;2023-04-03T02:30:27;6.07;;;5.18;;
8825;SDS011;4449;50.872;4.714;2023-04-03T02:32:54;5.10;;;4.70;;
8825;SDS011;4449;50.872;4.714;2023-04-03T02:35:22;5.50;;;5.00;;
8825;SDS011;4449;50.872;4.714;2023-04-03T02:37:50;4.85;;;4.38;;
8825;SDS011;4449;50.872;4.714;2023-04-03T02:40:18;5.55;;;4.95;;
8825;SDS011;4449;50.872;4.714;2023-04-03T02:42:47;5.43;;;4.90;;
8825;SDS011;4449;50.872;4.714;2023-04-03T02:45:15;5.78;;;4.95;;
8825;SDS011;4449;50.872;4.714;2023-04-03T02:47:42;5.68;;;5.18;;
8825;SDS011;4449;50.872;4.714;2023-04-03T02:50:10;5.20;;;4.80;;
8825;SDS011;4449;50.872;4.714;2023-04-03T02:52:38;5.40;;;4.90;;
8825;SDS011;4449;50.872;4.714;2023-04-03T02:55:06;6.07;;;5.20;;
8825;SDS011;4449;50.872;4.714;2023-04-03T02:57:34;7.03;;;5.07;;
8825;SDS011;4449;50.872;4.714;2023-04-03T03:00:04;5.57;;;5.07;;
8825;SDS011;4449;50.872;4.714;2023-04-03T03:02:32;6.47;;;5.20;;
8825;SDS011;4449;50.872;4.714;2023-04-03T03:05:00;6.93;;;5.57;;
8825;SDS011;4449;50.872;4.714;2023-04-03T03:07:28;7.35;;;5.63;;
8825;SDS011;4449;50.872;4.714;2023-04-03T03:09:55;6.57;;;5.90;;
8825;SDS011;4449;50.872;4.714;2023-04-03T03:12:23;5.78;;;5.18;;
8825;SDS011;4449;50.872;4.714;2023-04-03T03:14:51;5.40;;;4.65;;
8825;SDS011;4449;50.872;4.714;2023-04-03T03:17:20;6.05;;;5.18;;
8825;SDS011;4449;50.872;4.714;2023-04-03T03:19:48;7.55;;;5.22;;
8825;SDS011;4449;50.872;4.714;2023-04-03T03:22:16;6.00;;;4.80;;
8825;SDS011;4449;50.872;4.714;2023-04-03T03:24:43;6.88;;;5.32;;
8825;SDS011;4449;50.872;4.714;2023-04-03T03:27:11;8.73;;;5.50;;
8825;SDS011;4449;50.872;4.714;2023-04-03T03:29:39;6.65;;;5.32;;
8825;SDS011;4449;50.872;4.714;2023-04-03T03:32:07;5.80;;;5.25;;
8825;SDS011;4449;50.872;4.714;2023-04-03T03:34:36;6.45;;;5.03;;
8825;SDS011;4449;50.872;4.714;2023-04-03T03:37:04;5.82;;;5.00;;
8825;SDS011;4449;50.872;4.714;2023-04-03T03:39:31;5.45;;;4.97;;
8825;SDS011;4449;50.872;4.714;2023-04-03T03:41:59;5.53;;;5.00;;
8825;SDS011;4449;50.872;4.714;2023-04-03T03:44:27;6.07;;;5.05;;
8825;SDS011;4449;50.872;4.714;2023-04-03T03:46:55;5.30;;;4.90;;
8825;SDS011;4449;50.872;4.714;2023-04-03T03:49:23;5.80;;;4.93;;
8825;SDS011;4449;50.872;4.714;2023-04-03T03:51:52;6.03;;;5.53;;
8825;SDS011;4449;50.872;4.714;2023-04-03T03:54:20;6.75;;;5.30;;
8825;SDS011;4449;50.872;4.714;2023-04-03T03:56:48;5.82;;;5.13;;
8825;SDS011;4449;50.872;4.714;2023-04-03T03:59:16;6.03;;;5.43;;
8825;SDS011;4449;50.872;4.714;2023-04-03T04:01:43;6.65;;;5.30;;
8825;SDS011;4449;50.872;4.714;2023-04-03T04:04:11;5.60;;;5.10;;
8825;SDS011;4449;50.872;4.714;2023-04-03T04:06:39;5.60;;;5.20;;
8825;SDS011;4449;50.872;4.714;2023-04-03T04:09:09;6.10;;;5.60;;
8825;SDS011;4449;50.872;4.714;2023-04-03T04:11:37;5.95;;;5.00;;
8825;SDS011;4449;50.872;4.714;2023-04-03T04:14:05;9.60;;;5.70;;
8825;SDS011;4449;50.872;4.714;2023-04-03T04:16:35;5.70;;;5.22;;
8825;SDS011;4449;50.872;4.714;2023-04-03T04:19:03;6.07;;;5.47;;
8825;SDS011;4449;50.872;4.714;2023-04-03T04:21:31;5.38;;;5.00;;
8825;SDS011;4449;50.872;4.714;2023-04-03T04:23:58;8.25;;;5.90;;
8825;SDS011;4449;50.872;4.714;2023-04-03T04:26:28;6.05;;;5.55;;
8825;SDS011;4449;50.872;4.714;2023-04-03T04:28:56;7.70;;;5.45;;
8825;SDS011;4449;50.872;4.714;2023-04-03T04:31:23;7.35;;;5.93;;
8825;SDS011;4449;50.872;4.714;2023-04-03T04:33:51;7.57;;;5.82;;
8825;SDS011;4449;50.872;4.714;2023-04-03T04:36:19;6.28;;;5.68;;
8825;SDS011;4449;50.872;4.714;2023-04-03T04:38:47;8.20;;;6.43;;
8825;SDS011;4449;50.872;4.714;2023-04-03T04:41:18;6.32;;;5.70;;
8825;SDS011;4449;50.872;4.714;2023-04-03T04:43:49;6.65;;;6.05;;
8825;SDS011;4449;50.872;4.714;2023-04-03T04:46:16;6.38;;;5.78;;
8825;SDS011;4449;50.872;4.714;2023-04-03T04:48:44;7.25;;;6.00;;
8825;SDS011;4449;50.872;4.714;2023-04-03T04:51:13;7.28;;;5.40;;
8825;SDS011;4449;50.872;4.714;2023-04-03T04:53:41;6.78;;;6.07;;
8825;SDS011;4449;50.872;4.714;2023-04-03T04:56:09;7.70;;;6.20;;
8825;SDS011;4449;50.872;4.714;2023-04-03T04:58:37;7.32;;;6.07;;
8825;SDS011;4449;50.872;4.714;2023-04-03T05:01:07;6.60;;;6.00;;
8825;SDS011;4449;50.872;4.714;2023-04-03T05:03:34;9.05;;;6.43;;
8825;SDS011;4449;50.872;4.714;2023-04-03T05:06:02;6.80;;;6.25;;
8825;SDS011;4449;50.872;4.714;2023-04-03T05:08:30;8.23;;;6.40;;
8825;SDS011;4449;50.872;4.714;2023-04-03T05:10:58;9.88;;;6.97;;
8825;SDS011;4449;50.872;4.714;2023-04-03T05:13:26;8.88;;;6.78;;
8825;SDS011;4449;50.872;4.714;2023-04-03T05:15:54;7.20;;;6.45;;
8825;SDS011;4449;50.872;4.714;2023-04-03T05:18:23;8.02;;;6.70;;
8825;SDS011;4449;50.872;4.714;2023-04-03T05:20:51;7.30;;;6.60;;
8825;SDS011;4449;50.872;4.714;2023-04-03T05:23:19;8.18;;;7.22;;
8825;SDS011;4449;50.872;4.714;2023-04-03T05:25:47;7.43;;;6.63;;
8825;SDS011;4449;50.872;4.714;2023-04-03T05:28:15;7.20;;;6.47;;
8825;SDS011;4449;50.872;4.714;2023-04-03T05:30:42;7.55;;;6.85;;
8825;SDS011;4449;50.872;4.714;2023-04-03T05:33:10;7.47;;;6.77;;
8825;SDS011;4449;50.872;4.714;2023-04-03T05:35:40;7.60;;;6.82;;
8825;SDS011;4449;50.872;4.714;2023-04-03T05:38:09;10.73;;;7.78;;
8825;SDS011;4449;50.872;4.714;2023-04-03T05:40:37;9.20;;;7.15;;
8825;SDS011;4449;50.872;4.714;2023-04-03T05:43:04;9.85;;;7.95;;
8825;SDS011;4449;50.872;4.714;2023-04-03T05:45:32;7.57;;;6.83;;
8825;SDS011;4449;50.872;4.714;2023-04-03T05:48:00;11.43;;;7.70;;
8825;SDS011;4449;50.872;4.714;2023-04-03T05:50:28;8.70;;;7.20;;
8825;SDS011;4449;50.872;4.714;2023-04-03T05:52:57;9.70;;;7.10;;
8825;SDS011;4449;50.872;4.714;2023-04-03T05:55:25;8.38;;;6.85;;
8825;SDS011;4449;50.872;4.714;2023-04-03T05:57:53;11.00;;;7.70;;
8825;SDS011;4449;50.872;4.714;2023-04-03T06:00:20;8.63;;;7.40;;
8825;SDS011;4449;50.872;4.714;2023-04-03T06:02:48;9.82;;;7.70;;
8825;SDS011;4449;50.872;4.714;2023-04-03T06:05:16;9.10;;;7.40;;
8825;SDS011;4449;50.872;4.714;2023-04-03T06:07:44;11.50;;;7.82;;
8825;SDS011;4449;50.872;4.714;2023-04-03T06:10:13;13.03;;;8.10;;
8825;SDS011;4449;50.872;4.714;2023-04-03T06:12:41;12.85;;;8.40;;
8825;SDS011;4449;50.872;4.714;2023-04-03T06:15:08;15.50;;;8.70;;
8825;SDS011;4449;50.872;4.714;2023-04-03T06:17:37;10.57;;;8.10;;
8825;SDS011;4449;50.872;4.714;2023-04-03T06:20:05;10.52;;;7.72;;
8825;SDS011;4449;50.872;4.714;2023-04-03T06:22:33;9.23;;;8.10;;
8825;SDS011;4449;50.872;4.714;2023-04-03T06:25:01;10.40;;;7.43;;
8825;SDS011;4449;50.872;4.714;2023-04-03T06:27:30;9.48;;;7.78;;
8825;SDS011;4449;50.872;4.714;2023-04-03T06:30:01;21.90;;;9.00;;
8825;SDS011;4449;50.872;4.714;2023-04-03T06:32:29;19.13;;;9.55;;
8825;SDS011;4449;50.872;4.714;2023-04-03T06:34:57;13.55;;;8.20;;
8825;SDS011;4449;50.872;4.714;2023-04-03T06:37:25;12.32;;;8.25;;
8825;SDS011;4449;50.872;4.714;2023-04-03T06:39:54;12.40;;;7.78;;
8825;SDS011;4449;50.872;4.714;2023-04-03T06:42:22;9.57;;;8.05;;
8825;SDS011;4449;50.872;4.714;2023-04-03T06:44:51;10.65;;;8.50;;
8825;SDS011;4449;50.872;4.714;2023-04-03T06:47:19;10.10;;;7.45;;
8825;SDS011;4449;50.872;4.714;2023-04-03T06:49:47;8.77;;;7.88;;
8825;SDS011;4449;50.872;4.714;2023-04-03T06:52:14;8.68;;;7.65;;
8825;SDS011;4449;50.872;4.714;2023-04-03T06:54:42;12.88;;;7.78;;
8825;SDS011;4449;50.872;4.714;2023-04-03T06:57:10;8.70;;;7.90;;
8825;SDS011;4449;50.872;4.714;2023-04-03T06:59:38;10.70;;;8.27;;
8825;SDS011;4449;50.872;4.714;2023-04-03T07:02:08;9.85;;;7.82;;
8825;SDS011;4449;50.872;4.714;2023-04-03T07:04:36;9.77;;;7.97;;
8825;SDS011;4449;50.872;4.714;2023-04-03T07:07:04;7.90;;;7.05;;
8825;SDS011;4449;50.872;4.714;2023-04-03T07:09:32;9.25;;;7.43;;
8825;SDS011;4449;50.872;4.714;2023-04-03T07:12:00;10.52;;;8.23;;
8825;SDS011;4449;50.872;4.714;2023-04-03T07:14:28;10.00;;;8.30;;
8825;SDS011;4449;50.872;4.714;2023-04-03T07:16:56;9.55;;;8.45;;
8825;SDS011;4449;50.872;4.714;2023-04-03T07:19:25;9.82;;;7.63;;
8825;SDS011;4449;50.872;4.714;2023-04-03T07:21:53;9.40;;;7.57;;
8825;SDS011;4449;50.872;4.714;2023-04-03T07:24:21;9.80;;;7.72;;
8825;SDS011;4449;50.872;4.714;2023-04-03T07:26:49;9.48;;;7.22;;
8825;SDS011;4449;50.872;4.714;2023-04-03T07:29:17;9.60;;;7.20;;
8825;SDS011;4449;50.872;4.714;2023-04-03T07:31:47;9.70;;;7.30;;
8825;SDS011;4449;50.872;4.714;2023-04-03T07:34:16;8.57;;;6.10;;
8825;SDS011;4449;50.872;4.714;2023-04-03T07:36:45;7.00;;;6.05;;
8825;SDS011;4449;50.872;4.714;2023-04-03T07:39:13;7.55;;;6.50;;
8825;SDS011;4449;50.872;4.714;2023-04-03T07:41:41;8.35;;;6.60;;
8825;SDS011;4449;50.872;4.714;2023-04-03T07:44:09;8.32;;;6.43;;
8825;SDS011;4449;50.872;4.714;2023-04-03T07:46:36;6.85;;;6.07;;
8825;SDS011;4449;50.872;4.714;2023-04-03T07:49:05;8.65;;;6.38;;
8825;SDS011;4449;50.872;4.714;2023-04-03T07:51:33;6.18;;;5.63;;
8825;SDS011;4449;50.872;4.714;2023-04-03T07:54:02;7.47;;;6.03;;
8825;SDS011;4449;50.872;4.714;2023-04-03T07:56:30;8.65;;;5.50;;
8825;SDS011;4449;50.872;4.714;2023-04-03T07:58:58;7.03;;;5.63;;
8825;SDS011;4449;50.872;4.714;2023-04-03T08:01:26;7.93;;;5.80;;
8825;SDS011;4449;50.872;4.714;2023-04-03T08:03:57;5.90;;;5.30;;
8825;SDS011;4449;50.872;4.714;2023-04-03T08:06:25;6.35;;;5.20;;
8825;SDS011;4449;50.872;4.714;2023-04-03T08:08:54;6.45;;;5.25;;
8825;SDS011;4449;50.872;4.714;2023-04-03T08:11:24;7.60;;;5.47;;
8825;SDS011;4449;50.872;4.714;2023-04-03T08:13:52;6.68;;;5.45;;
8825;SDS011;4449;50.872;4.714;2023-04-03T08:16:20;5.60;;;5.10;;
8825;SDS011;4449;50.872;4.714;2023-04-03T08:18:50;5.90;;;4.90;;
8825;SDS011;4449;50.872;4.714;2023-04-03T08:21:18;7.05;;;5.07;;
8825;SDS011;4449;50.872;4.714;2023-04-03T08:23:47;6.60;;;5.07;;
8825;SDS011;4449;50.872;4.714;2023-04-03T08:26:16;21.53;;;5.97;;
8825;SDS011;4449;50.872;4.714;2023-04-03T08:28:45;4.90;;;4.40;;
8825;SDS011;4449;50.872;4.714;2023-04-03T08:31:14;19.63;;;5.93;;
8825;SDS011;4449;50.872;4.714;2023-04-03T08:33:43;5.07;;;4.57;;
8825;SDS011;4449;50.872;4.714;2023-04-03T08:36:18;4.18;;;3.78;;
8825;SDS011;4449;50.872;4.714;2023-04-03T08:38:46;5.00;;;4.50;;
8825;SDS011;4449;50.872;4.714;2023-04-03T08:41:15;4.53;;;4.13;;
8825;SDS011;4449;50.872;4.714;2023-04-03T08:43:49;4.18;;;3.78;;
8825;SDS011;4449;50.872;4.714;2023-04-03T08:46:20;4.47;;;4.07;;
8825;SDS011;4449;50.872;4.714;2023-04-03T08:48:50;5.07;;;3.90;;
8825;SDS011;4449;50.872;4.714;2023-04-03T08:51:19;5.63;;;3.87;;
8825;SDS011;4449;50.872;4.714;2023-04-03T08:53:49;4.65;;;3.67;;
8825;SDS011;4449;50.872;4.714;2023-04-03T08:56:18;4.47;;;3.80;;
8825;SDS011;4449;50.872;4.714;2023-04-03T08:58:50;5.37;;;3.43;;
8825;SDS011;4449;50.872;4.714;2023-04-03T09:01:19;3.77;;;3.33;;
8825;SDS011;4449;50.872;4.714;2023-04-03T09:03:48;4.40;;;3.37;;
8825;SDS011;4449;50.872;4.714;2023-04-03T09:06:16;4.97;;;2.93;;
8825;SDS011;4449;50.872;4.714;2023-04-03T09:08:46;3.33;;;2.77;;
8825;SDS011;4449;50.872;4.714;2023-04-03T09:11:16;4.53;;;2.73;;
8825;SDS011;4449;50.872;4.714;2023-04-03T09:13:48;3.03;;;2.63;;
8825;SDS011;4449;50.872;4.714;2023-04-03T09:16:26;5.10;;;2.33;;
8825;SDS011;4449;50.872;4.714;2023-04-03T09:18:57;4.95;;;2.72;;
8825;SDS011;4449;50.872;4.714;2023-04-03T09:21:30;3.53;;;3.23;;
8825;SDS011;4449;50.872;4.714;2023-04-03T09:23:59;2.53;;;2.30;;
8825;SDS011;4449;50.872;4.714;2023-04-03T09:26:30;2.70;;;2.47;;
8825;SDS011;4449;50.872;4.714;2023-04-03T09:29:00;7.20;;;3.00;;
8825;SDS011;4449;50.872;4.714;2023-04-03T09:31:35;3.20;;;2.60;;
8825;SDS011;4449;50.872;4.714;2023-04-03T09:34:05;3.35;;;2.65;;
8825;SDS011;4449;50.872;4.714;2023-04-03T09:36:37;2.78;;;2.58;;
8825;SDS011;4449;50.872;4.714;2023-04-03T09:39:05;4.38;;;2.92;;
8825;SDS011;4449;50.872;4.714;2023-04-03T10:41:34;2.20;;;2.00;;
8825;SDS011;4449;50.872;4.714;2023-04-03T10:44:09;2.30;;;2.10;;
8825;SDS011;4449;50.872;4.714;2023-04-03T10:46:41;2.88;;;2.20;;
8825;SDS011;4449;50.872;4.714;2023-04-03T10:49:16;3.30;;;2.25;;
8825;SDS011;4449;50.872;4.714;2023-04-03T10:51:47;3.72;;;2.40;;
8825;SDS011;4449;50.872;4.714;2023-04-03T10:54:16;2.67;;;2.10;;
8825;SDS011;4449;50.872;4.714;2023-04-03T10:56:50;2.95;;;2.05;;
8825;SDS011;4449;50.872;4.714;2023-04-03T10:59:21;2.55;;;2.08;;
8825;SDS011;4449;50.872;4.714;2023-04-03T11:01:51;1.98;;;1.60;;
8825;SDS011;4449;50.872;4.714;2023-04-03T11:04:19;1.83;;;1.73;;
8825;SDS011;4449;50.872;4.714;2023-04-03T11:06:50;2.97;;;2.13;;
8825;SDS011;4449;50.872;4.714;2023-04-03T11:09:22;4.30;;;2.27;;
8825;SDS011;4449;50.872;4.714;2023-04-03T11:11:53;4.53;;;1.90;;
8825;SDS011;4449;50.872;4.714;2023-04-03T11:14:24;4.35;;;2.30;;
8825;SDS011;4449;50.872;4.714;2023-04-03T11:16:55;2.40;;;2.07;;
8825;SDS011;4449;50.872;4.714;2023-04-03T11:19:29;3.67;;;1.92;;
8825;SDS011;4449;50.872;4.714;2023-04-03T11:22:01;2.08;;;1.77;;
8825;SDS011;4449;50.872;4.714;2023-04-03T11:24:32;2.10;;;1.90;;
8825;SDS011;4449;50.872;4.714;2023-04-03T11:27:02;3.55;;;1.70;;
8825;SDS011;4449;50.872;4.714;2023-04-03T11:29:32;2.83;;;1.80;;
8825;SDS011;4449;50.872;4.714;2023-04-03T11:32:08;1.70;;;1.60;;
8825;SDS011;4449;50.872;4.714;2023-04-03T11:34:37;3.10;;;1.77;;
8825;SDS011;4449;50.872;4.714;2023-04-03T11:37:12;1.93;;;1.73;;
8825;SDS011;4449;50.872;4.714;2023-04-03T11:39:40;2.50;;;1.60;;
8825;SDS011;4449;50.872;4.714;2023-04-03T11:42:16;1.93;;;1.50;;
8825;SDS011;4449;50.872;4.714;2023-04-03T11:44:45;3.00;;;2.00;;
8825;SDS011;4449;50.872;4.714;2023-04-03T11:47:13;4.22;;;2.00;;
8825;SDS011;4449;50.872;4.714;2023-04-03T11:50:02;2.55;;;2.10;;
8825;SDS011;4449;50.872;4.714;2023-04-03T11:58:09;1.90;;;1.80;;
8825;SDS011;4449;50.872;4.714;2023-04-03T12:00:47;1.80;;;1.70;;
8825;SDS011;4449;50.872;4.714;2023-04-03T12:08:49;2.03;;;1.48;;
8825;SDS011;4449;50.872;4.714;2023-04-03T12:11:22;1.80;;;1.70;;
8825;SDS011;4449;50.872;4.714;2023-04-03T12:14:03;2.42;;;1.80;;
8825;SDS011;4449;50.872;4.714;2023-04-03T12:16:32;1.60;;;1.50;;
8825;SDS011;4449;50.872;4.714;2023-04-03T12:19:03;1.85;;;1.75;;
8825;SDS011;4449;50.872;4.714;2023-04-03T12:24:23;1.52;;;1.42;;
8825;SDS011;4449;50.872;4.714;2023-04-03T12:27:02;1.95;;;1.35;;
8825;SDS011;4449;50.872;4.714;2023-04-03T12:29:34;3.25;;;1.73;;
8825;SDS011;4449;50.872;4.714;2023-04-03T12:32:08;1.88;;;1.35;;
8825;SDS011;4449;50.872;4.714;2023-04-03T12:34:43;2.67;;;1.40;;
8825;SDS011;4449;50.872;4.714;2023-04-03T12:37:20;1.55;;;1.30;;
8825;SDS011;4449;50.872;4.714;2023-04-03T12:39:51;1.50;;;1.40;;
8825;SDS011;4449;50.872;4.714;2023-04-03T12:42:23;1.50;;;1.40;;
8825;SDS011;4449;50.872;4.714;2023-04-03T12:44:58;1.60;;;1.50;;
8825;SDS011;4449;50.872;4.714;2023-04-03T12:47:28;1.55;;;1.30;;
8825;SDS011;4449;50.872;4.714;2023-04-03T12:49:58;1.70;;;1.50;;
8825;SDS011;4449;50.872;4.714;2023-04-03T12:52:37;2.00;;;1.35;;
8825;SDS011;4449;50.872;4.714;2023-04-03T12:55:08;2.05;;;1.50;;
8825;SDS011;4449;50.872;4.714;2023-04-03T12:57:39;1.67;;;1.58;;
8825;SDS011;4449;50.872;4.714;2023-04-03T13:03:06;1.70;;;1.60;;
8825;SDS011;4449;50.872;4.714;2023-04-03T13:05:34;2.13;;;1.73;;
8825;SDS011;4449;50.872;4.714;2023-04-03T13:08:03;2.13;;;1.90;;
8825;SDS011;4449;50.872;4.714;2023-04-03T13:10:31;4.90;;;1.95;;
8825;SDS011;4449;50.872;4.714;2023-04-03T13:13:07;2.25;;;2.03;;
8825;SDS011;4449;50.872;4.714;2023-04-03T13:15:40;2.10;;;1.90;;
8825;SDS011;4449;50.872;4.714;2023-04-03T13:18:22;2.50;;;1.90;;
8825;SDS011;4449;50.872;4.714;2023-04-03T13:20:50;3.00;;;1.65;;
8825;SDS011;4449;50.872;4.714;2023-04-03T13:23:18;4.47;;;1.80;;
8825;SDS011;4449;50.872;4.714;2023-04-03T13:25:49;2.00;;;1.80;;
8825;SDS011;4449;50.872;4.714;2023-04-03T13:28:18;2.00;;;1.90;;
8825;SDS011;4449;50.872;4.714;2023-04-03T13:33:34;1.70;;;1.60;;
8825;SDS011;4449;50.872;4.714;2023-04-03T13:36:04;3.90;;;1.60;;
8825;SDS011;4449;50.872;4.714;2023-04-03T13:38:32;4.03;;;1.80;;
8825;SDS011;4449;50.872;4.714;2023-04-03T13:41:03;1.53;;;1.40;;
8825;SDS011;4449;50.872;4.714;2023-04-03T13:43:32;1.60;;;1.50;;
8825;SDS011;4449;50.872;4.714;2023-04-03T13:46:02;6.83;;;1.50;;
8825;SDS011;4449;50.872;4.714;2023-04-03T13:48:37;1.40;;;1.40;;
8825;SDS011;4449;50.872;4.714;2023-04-03T13:51:06;1.13;;;1.13;;
8825;SDS011;4449;50.872;4.714;2023-04-03T13:53:43;1.50;;;1.40;;
8825;SDS011;4449;50.872;4.714;2023-04-03T13:56:16;1.80;;;1.48;;
8825;SDS011;4449;50.872;4.714;2023-04-03T13:58:56;1.67;;;1.58;;
8825;SDS011;4449;50.872;4.714;2023-04-03T14:01:25;1.70;;;1.30;;
8825;SDS011;4449;50.872;4.714;2023-04-03T14:03:55;1.37;;;1.27;;
8825;SDS011;4449;50.872;4.714;2023-04-03T14:06:23;2.40;;;1.70;;
8825;SDS011;4449;50.872;4.714;2023-04-03T14:08:51;2.73;;;1.67;;
8825;SDS011;4449;50.872;4.714;2023-04-03T14:11:22;1.50;;;1.40;;
8825;SDS011;4449;50.872;4.714;2023-04-03T14:13:52;1.60;;;1.50;;
8825;SDS011;4449;50.872;4.714;2023-04-03T14:16:22;1.37;;;1.37;;
8825;SDS011;4449;50.872;4.714;2023-04-03T14:18:50;2.43;;;1.30;;
8825;SDS011;4449;50.872;4.714;2023-04-03T14:21:20;1.93;;;1.27;;
8825;SDS011;4449;50.872;4.714;2023-04-03T14:23:48;1.50;;;1.40;;
8825;SDS011;4449;50.872;4.714;2023-04-03T14:26:17;2.67;;;1.63;;
8825;SDS011;4449;50.872;4.714;2023-04-03T14:28:46;1.43;;;1.40;;
8825;SDS011;4449;50.872;4.714;2023-04-03T14:31:15;1.70;;;1.60;;
8825;SDS011;4449;50.872;4.714;2023-04-03T14:33:44;1.60;;;1.60;;
8825;SDS011;4449;50.872;4.714;2023-04-03T14:36:13;2.77;;;1.80;;
8825;SDS011;4449;50.872;4.714;2023-04-03T14:38:43;2.30;;;1.73;;
8825;SDS011;4449;50.872;4.714;2023-04-03T14:41:12;2.43;;;1.70;;
8825;SDS011;4449;50.872;4.714;2023-04-03T14:43:40;3.33;;;2.07;;
8825;SDS011;4449;50.872;4.714;2023-04-03T14:46:10;1.93;;;1.83;;
8825;SDS011;4449;50.872;4.714;2023-04-03T14:48:39;2.50;;;1.77;;
8825;SDS011;4449;50.872;4.714;2023-04-03T14:51:08;2.23;;;1.43;;
8825;SDS011;4449;50.872;4.714;2023-04-03T14:53:36;1.43;;;1.33;;
8825;SDS011;4449;50.872;4.714;2023-04-03T14:56:08;1.70;;;1.60;;
8825;SDS011;4449;50.872;4.714;2023-04-03T14:58:38;4.10;;;1.60;;
8825;SDS011;4449;50.872;4.714;2023-04-03T15:01:05;2.10;;;1.90;;
8825;SDS011;4449;50.872;4.714;2023-04-03T15:03:33;1.80;;;1.70;;
8825;SDS011;4449;50.872;4.714;2023-04-03T15:06:01;2.63;;;1.70;;
8825;SDS011;4449;50.872;4.714;2023-04-03T15:08:29;1.70;;;1.60;;
8825;SDS011;4449;50.872;4.714;2023-04-03T15:10:57;2.27;;;2.07;;
8825;SDS011;4449;50.872;4.714;2023-04-03T15:13:27;3.07;;;1.90;;
8825;SDS011;4449;50.872;4.714;2023-04-03T15:15:55;1.73;;;1.63;;
8825;SDS011;4449;50.872;4.714;2023-04-03T15:18:24;1.80;;;1.70;;
8825;SDS011;4449;50.872;4.714;2023-04-03T15:20:53;1.63;;;1.63;;
8825;SDS011;4449;50.872;4.714;2023-04-03T15:23:21;2.67;;;2.17;;
8825;SDS011;4449;50.872;4.714;2023-04-03T15:25:51;3.80;;;1.90;;
8825;SDS011;4449;50.872;4.714;2023-04-03T15:28:21;2.50;;;2.10;;
8825;SDS011;4449;50.872;4.714;2023-04-03T15:30:51;2.00;;;1.80;;
8825;SDS011;4449;50.872;4.714;2023-04-03T15:33:19;1.70;;;1.60;;
8825;SDS011;4449;50.872;4.714;2023-04-03T15:35:47;3.17;;;2.77;;
8825;SDS011;4449;50.872;4.714;2023-04-03T15:38:15;2.60;;;1.83;;
8825;SDS011;4449;50.872;4.714;2023-04-03T15:40:43;5.35;;;2.45;;
8825;SDS011;4449;50.872;4.714;2023-04-03T15:43:12;2.20;;;2.00;;
8825;SDS011;4449;50.872;4.714;2023-04-03T15:45:40;2.53;;;2.10;;
8825;SDS011;4449;50.872;4.714;2023-04-03T15:48:10;3.83;;;2.03;;
8825;SDS011;4449;50.872;4.714;2023-04-03T15:50:38;4.40;;;1.93;;
8825;SDS011;4449;50.872;4.714;2023-04-03T15:53:06;2.73;;;2.27;;
8825;SDS011;4449;50.872;4.714;2023-04-03T15:55:35;3.40;;;1.97;;
8825;SDS011;4449;50.872;4.714;2023-04-03T15:58:03;2.40;;;2.20;;
8825;SDS011;4449;50.872;4.714;2023-04-03T16:00:32;2.23;;;2.03;;
8825;SDS011;4449;50.872;4.714;2023-04-03T16:03:02;1.93;;;1.80;;
8825;SDS011;4449;50.872;4.714;2023-04-03T16:05:33;3.17;;;2.17;;
8825;SDS011;4449;50.872;4.714;2023-04-03T16:08:02;3.87;;;2.27;;
8825;SDS011;4449;50.872;4.714;2023-04-03T16:10:31;3.33;;;2.13;;
8825;SDS011;4449;50.872;4.714;2023-04-03T16:12:59;2.80;;;2.07;;
8825;SDS011;4449;50.872;4.714;2023-04-03T16:15:27;2.50;;;2.17;;
8825;SDS011;4449;50.872;4.714;2023-04-03T16:17:56;4.10;;;2.20;;
8825;SDS011;4449;50.872;4.714;2023-04-03T16:20:28;2.60;;;1.90;;
8825;SDS011;4449;50.872;4.714;2023-04-03T16:22:57;2.57;;;1.80;;
8825;SDS011;4449;50.872;4.714;2023-04-03T16:25:26;2.13;;;2.03;;
8825;SDS011;4449;50.872;4.714;2023-04-03T16:27:54;2.57;;;1.70;;
8825;SDS011;4449;50.872;4.714;2023-04-03T16:30:22;2.23;;;2.10;;
8825;SDS011;4449;50.872;4.714;2023-04-03T16:32:50;2.90;;;2.20;;
8825;SDS011;4449;50.872;4.714;2023-04-03T16:35:18;3.33;;;2.00;;
8825;SDS011;4449;50.872;4.714;2023-04-03T16:37:46;6.07;;;2.17;;
8825;SDS011;4449;50.872;4.714;2023-04-03T16:40:15;1.90;;;1.80;;
8825;SDS011;4449;50.872;4.714;2023-04-03T16:42:43;2.20;;;2.00;;
8825;SDS011;4449;50.872;4.714;2023-04-03T16:45:11;2.45;;;2.25;;
8825;SDS011;4449;50.872;4.714;2023-04-03T16:47:39;2.42;;;2.22;;
8825;SDS011;4449;50.872;4.714;2023-04-03T16:50:07;4.85;;;2.45;;